Terminal Aerodrome Forecast
Issued by NWS Binghamton, NY

Home | Current Version | Previous Version | Text Only | Print | Product List | Glossary On
Versions: 1 2 3 4 5 6 7 8 9 10 11 12 13 14 15 16 17 18
000
FTUS41 KBGM 172341
TAFBGM
TAF
KBGM 172341Z 1800/1824 15010KT 3SM -RA BR OVC003
     FM180300 18005KT 2SM -DZ BR OVC003
     FM181200 25005KT 3SM -DZ BR OVC008
     FM181500 30005KT P6SM OVC008=

USA.gov is the U.S. government's official web portal to all federal, state and local government web resources and services.